createdAt,value
2024-05-09T00:00:18.475Z,75.97
2024-05-09T00:02:52.443Z,73.81
2024-05-09T00:05:18.803Z,72.44
2024-05-09T00:07:45.130Z,71.45
2024-05-09T00:10:18.301Z,70.68
2024-05-09T00:12:51.718Z,70.22
2024-05-09T00:15:18.003Z,68.84
2024-05-09T00:17:44.485Z,68.48
2024-05-09T00:20:17.633Z,67.93
2024-05-09T00:22:50.264Z,67.58
2024-05-09T00:25:16.665Z,66.93
2024-05-09T00:27:42.931Z,66.90
2024-05-09T00:30:14.348Z,66.93
2024-05-09T00:32:44.041Z,66.55
2024-05-09T00:35:10.414Z,66.39
2024-05-09T00:37:36.692Z,66.26
2024-05-09T00:40:03.547Z,66.12
2024-05-09T00:42:29.906Z,66.34
2024-05-09T00:44:56.211Z,65.98
2024-05-09T00:47:22.726Z,66.21
2024-05-09T00:49:49.236Z,65.88
2024-05-09T00:52:15.646Z,65.50
2024-05-09T00:54:41.958Z,65.52
2024-05-09T00:57:08.225Z,65.08
2024-05-09T00:59:34.610Z,67.12
2024-05-09T01:02:01.040Z,67.55
2024-05-09T01:04:27.441Z,69.40
2024-05-09T01:06:53.754Z,69.99
2024-05-09T01:09:20.038Z,68.40
2024-05-09T01:11:46.495Z,70.06
2024-05-09T01:14:12.884Z,70.42
2024-05-09T01:16:39.186Z,69.48
2024-05-09T01:19:05.593Z,68.61
2024-05-09T01:21:31.907Z,67.79
2024-05-09T01:23:58.193Z,67.82
2024-05-09T01:26:24.564Z,67.73
2024-05-09T01:28:50.977Z,67.41
2024-05-09T01:31:17.301Z,67.27
2024-05-09T01:33:43.720Z,67.68
2024-05-09T01:36:10.082Z,68.55
2024-05-09T01:38:36.451Z,69.59
2024-05-09T01:41:02.891Z,69.81
2024-05-09T01:43:29.224Z,68.74
2024-05-09T01:45:55.480Z,68.19
2024-05-09T01:48:21.896Z,67.71
2024-05-09T01:50:48.269Z,67.08
2024-05-09T01:53:15.286Z,67.27
2024-05-09T01:55:41.769Z,67.00
2024-05-09T01:58:08.031Z,67.44
2024-05-09T02:00:39.538Z,67.40
2024-05-09T02:03:08.522Z,67.69
2024-05-09T02:05:35.187Z,70.58
2024-05-09T02:08:01.583Z,73.16
2024-05-09T02:10:32.483Z,70.90
2024-05-09T02:12:59.657Z,71.02
2024-05-09T02:15:25.934Z,69.93
2024-05-09T02:17:52.424Z,69.43
2024-05-09T02:20:27.444Z,68.00
2024-05-09T02:23:00.175Z,67.20
2024-05-09T02:25:26.478Z,66.82
2024-05-09T02:27:52.747Z,66.34
2024-05-09T02:30:26.318Z,65.61
2024-05-09T02:33:04.293Z,66.25
2024-05-09T02:35:30.747Z,65.75
2024-05-09T02:37:57.088Z,65.54
2024-05-09T02:40:33.039Z,65.34
2024-05-09T02:43:03.374Z,65.37
2024-05-09T02:45:29.634Z,65.43
2024-05-09T02:47:56.135Z,65.23
2024-05-09T02:50:29.990Z,65.17
2024-05-09T02:53:06.342Z,65.11
2024-05-09T02:55:32.980Z,64.40
2024-05-09T02:57:59.538Z,64.96
2024-05-09T03:00:34.658Z,64.34
2024-05-09T03:03:05.821Z,64.89
2024-05-09T03:05:32.562Z,64.91
2024-05-09T03:07:58.928Z,64.83
2024-05-09T03:10:28.660Z,65.50
2024-05-09T03:12:55.575Z,65.43
2024-05-09T03:15:22.132Z,66.09
2024-05-09T03:17:48.598Z,66.07
2024-05-09T03:20:20.683Z,65.94
2024-05-09T03:22:52.162Z,65.34
2024-05-09T03:25:19.728Z,65.40
2024-05-09T03:27:46.010Z,65.77
2024-05-09T03:30:18.381Z,65.29
2024-05-09T03:32:48.562Z,66.37
2024-05-09T03:35:15.089Z,66.25
2024-05-09T03:37:41.450Z,66.14
2024-05-09T03:40:11.799Z,65.81
2024-05-09T03:42:41.040Z,65.33
2024-05-09T03:45:07.310Z,65.31
2024-05-09T03:47:33.773Z,64.50
2024-05-09T03:50:00.272Z,64.59
2024-05-09T03:52:26.574Z,64.15
2024-05-09T03:54:52.903Z,64.10
2024-05-09T03:57:19.169Z,63.81
2024-05-09T03:59:45.426Z,63.81
2024-05-09T04:02:11.884Z,64.52
2024-05-09T04:04:38.263Z,65.41
2024-05-09T04:07:04.600Z,65.61
2024-05-09T04:09:30.881Z,65.65
2024-05-09T04:11:57.338Z,66.15
2024-05-09T04:14:23.697Z,65.55
2024-05-09T04:16:50.095Z,66.12
2024-05-09T04:19:16.610Z,66.64
2024-05-09T04:21:42.961Z,65.98
2024-05-09T04:24:09.230Z,65.06
2024-05-09T04:26:35.620Z,64.41
2024-05-09T04:29:02.069Z,66.10
2024-05-09T04:31:28.390Z,65.92
2024-05-09T04:33:54.802Z,65.55
2024-05-09T04:36:21.216Z,65.94
2024-05-09T04:38:47.507Z,66.11
2024-05-09T04:41:13.903Z,65.62
2024-05-09T04:43:40.227Z,66.12
2024-05-09T04:46:06.502Z,66.29
2024-05-09T04:48:32.818Z,66.98
2024-05-09T04:50:59.153Z,66.44
2024-05-09T04:53:25.508Z,66.64
2024-05-09T04:55:51.893Z,65.89
2024-05-09T04:58:18.223Z,66.18
2024-05-09T05:00:44.549Z,65.72
2024-05-09T05:03:13.446Z,65.82
2024-05-09T05:05:42.021Z,65.57
2024-05-09T05:08:08.430Z,65.46
2024-05-09T05:10:36.582Z,65.72
2024-05-09T05:13:06.163Z,65.35
2024-05-09T05:15:32.445Z,65.68
2024-05-09T05:17:58.931Z,65.95
2024-05-09T05:20:32.679Z,65.98
2024-05-09T05:23:00.146Z,66.10
2024-05-09T05:25:26.500Z,65.95
2024-05-09T05:27:52.791Z,66.03
2024-05-09T05:30:24.987Z,65.71
2024-05-09T05:32:55.191Z,66.03
2024-05-09T05:35:21.614Z,66.28
2024-05-09T05:37:47.987Z,66.52
2024-05-09T05:40:24.655Z,66.70
2024-05-09T05:42:54.580Z,66.35
2024-05-09T05:45:20.853Z,66.90
2024-05-09T05:47:47.243Z,66.74
2024-05-09T05:50:23.784Z,66.41
2024-05-09T05:52:54.041Z,66.41
2024-05-09T05:55:20.370Z,67.13
2024-05-09T05:57:46.655Z,67.13
2024-05-09T06:00:21.395Z,67.17
2024-05-09T06:02:51.882Z,66.92
2024-05-09T06:05:18.514Z,66.21
2024-05-09T06:07:44.882Z,66.35
2024-05-09T06:10:17.374Z,66.96
2024-05-09T06:12:47.919Z,66.75
2024-05-09T06:15:14.195Z,66.31
2024-05-09T06:17:40.550Z,65.36
2024-05-09T06:20:13.441Z,64.31
2024-05-09T06:22:46.572Z,63.81
2024-05-09T06:25:12.893Z,64.24
2024-05-09T06:27:39.160Z,64.53
2024-05-09T06:30:08.193Z,63.72
2024-05-09T06:32:36.224Z,63.03
2024-05-09T06:35:02.663Z,62.62
2024-05-09T06:37:28.969Z,62.25
2024-05-09T06:39:55.250Z,61.14
2024-05-09T06:42:21.517Z,62.33
2024-05-09T06:44:47.781Z,62.10
2024-05-09T06:47:14.263Z,62.37
2024-05-09T06:49:40.571Z,60.84
2024-05-09T06:52:06.870Z,61.68
2024-05-09T06:54:33.131Z,60.11
2024-05-09T06:56:59.405Z,60.04
2024-05-09T06:59:25.790Z,58.76
2024-05-09T07:01:52.129Z,57.64
2024-05-09T07:04:18.504Z,59.28
2024-05-09T07:06:44.814Z,58.47
2024-05-09T07:09:11.113Z,58.36
2024-05-09T07:11:37.666Z,55.65
2024-05-09T07:14:04.077Z,56.34
2024-05-09T07:16:30.352Z,55.57
2024-05-09T07:18:56.774Z,54.70
2024-05-09T07:21:23.313Z,52.27
2024-05-09T07:23:49.703Z,52.05
2024-05-09T07:26:16.254Z,52.58
2024-05-09T07:28:42.603Z,52.13
2024-05-09T07:31:08.902Z,52.81
2024-05-09T07:33:35.397Z,51.37
2024-05-09T07:36:01.719Z,51.23
2024-05-09T07:38:28.020Z,53.54
2024-05-09T07:40:54.367Z,53.60
2024-05-09T07:43:20.652Z,53.56
2024-05-09T07:45:52.576Z,54.40
2024-05-09T07:53:38.454Z,53.71
2024-05-09T07:56:06.014Z,52.77
2024-05-09T07:58:32.500Z,52.93
2024-05-09T08:00:58.821Z,51.46
2024-05-09T08:03:25.292Z,51.30
2024-05-09T08:05:51.819Z,50.79
2024-05-09T08:08:18.221Z,50.14
2024-05-09T08:10:44.629Z,50.13
2024-05-09T08:13:11.120Z,49.21
2024-05-09T08:15:37.491Z,48.49
2024-05-09T08:18:03.967Z,49.71
2024-05-09T08:20:33.731Z,49.39
2024-05-09T08:23:01.655Z,48.43
2024-05-09T08:25:28.082Z,46.19
2024-05-09T08:27:54.408Z,47.01
2024-05-09T08:30:25.439Z,46.82
2024-05-09T08:32:58.990Z,46.34
2024-05-09T08:35:25.420Z,44.99
2024-05-09T08:37:51.776Z,47.57
2024-05-09T08:40:24.188Z,47.24
2024-05-09T08:42:57.149Z,45.01
2024-05-09T08:45:23.445Z,45.17
2024-05-09T08:47:49.838Z,44.26
2024-05-09T08:50:28.585Z,45.24
2024-05-09T08:53:04.092Z,46.31
2024-05-09T08:55:30.374Z,47.43
2024-05-09T08:57:56.699Z,48.98
2024-05-09T09:00:33.407Z,50.12
2024-05-09T09:03:03.000Z,52.32
2024-05-09T09:05:29.521Z,53.06
2024-05-09T09:07:55.923Z,54.24
2024-05-09T09:10:29.584Z,55.04
2024-05-09T09:12:58.417Z,53.66
2024-05-09T09:15:24.709Z,55.00
2024-05-09T09:17:51.105Z,54.86
2024-05-09T09:20:23.243Z,54.78
2024-05-09T09:22:55.394Z,55.55
2024-05-09T09:25:21.668Z,55.07
2024-05-09T09:27:48.011Z,54.29
2024-05-09T09:30:27.712Z,55.29
2024-05-09T09:33:00.634Z,54.88
2024-05-09T09:35:26.962Z,53.78
2024-05-09T09:37:53.220Z,56.16
2024-05-09T09:40:22.320Z,53.08
2024-05-09T09:42:51.915Z,53.26
2024-05-09T09:45:18.278Z,50.82
2024-05-09T09:47:44.804Z,52.51
2024-05-09T09:50:14.547Z,51.06
2024-05-09T09:52:43.342Z,50.40
2024-05-09T09:55:09.775Z,50.53
2024-05-09T09:57:36.219Z,49.58
2024-05-09T10:00:05.522Z,49.54
2024-05-09T10:02:33.691Z,50.55
2024-05-09T10:05:00.123Z,51.41
2024-05-09T10:07:26.463Z,51.92
2024-05-09T10:09:52.971Z,51.21
2024-05-09T10:12:19.472Z,52.00
2024-05-09T10:14:45.776Z,51.42
2024-05-09T10:17:12.046Z,51.50
2024-05-09T10:19:38.570Z,52.06
2024-05-09T10:22:04.945Z,52.40
2024-05-09T10:24:31.294Z,49.80
2024-05-09T10:26:57.565Z,49.50
2024-05-09T10:29:23.836Z,50.78
2024-05-09T10:31:50.242Z,47.32
2024-05-09T10:34:16.713Z,47.55
2024-05-09T10:36:43.164Z,48.31
2024-05-09T10:39:09.575Z,48.01
2024-05-09T10:41:35.877Z,47.41
2024-05-09T10:44:03.881Z,47.08
2024-05-09T10:46:30.213Z,46.73
2024-05-09T10:48:56.612Z,47.52
2024-05-09T10:51:23.056Z,47.64
2024-05-09T10:53:49.331Z,48.03
2024-05-09T10:56:15.599Z,43.37
2024-05-09T10:58:41.854Z,45.67
2024-05-09T11:01:08.210Z,45.37
2024-05-09T11:03:34.888Z,46.14
2024-05-09T11:06:01.531Z,45.79
2024-05-09T11:08:27.820Z,46.71
2024-05-09T11:10:54.271Z,46.61
2024-05-09T11:13:20.669Z,46.48
2024-05-09T11:15:47.077Z,45.08
2024-05-09T11:18:13.536Z,46.55
2024-05-09T11:20:40.043Z,46.80
2024-05-09T11:23:06.432Z,44.81
2024-05-09T11:25:32.706Z,44.21
2024-05-09T11:27:59.071Z,44.76
2024-05-09T11:30:31.538Z,43.93
2024-05-09T11:32:58.792Z,44.94
2024-05-09T11:35:25.142Z,44.76
2024-05-09T11:37:51.409Z,43.77
2024-05-09T11:40:25.189Z,44.81
2024-05-09T11:42:54.810Z,45.01
2024-05-09T11:45:21.094Z,44.22
2024-05-09T11:47:47.512Z,44.23
2024-05-09T11:50:22.391Z,43.41
2024-05-09T11:52:53.621Z,43.43
2024-05-09T11:55:19.923Z,43.14
2024-05-09T11:57:46.281Z,41.78
2024-05-09T12:00:18.205Z,41.29
2024-05-09T12:02:51.498Z,42.84
2024-05-09T12:05:18.085Z,42.20
2024-05-09T12:07:44.462Z,43.08
2024-05-09T12:10:16.579Z,41.16
2024-05-09T12:12:45.820Z,40.83
2024-05-09T12:15:12.092Z,40.02
2024-05-09T12:17:38.500Z,37.87
2024-05-09T12:20:09.034Z,40.72
2024-05-09T12:22:37.473Z,41.00
2024-05-09T12:25:03.856Z,40.50
2024-05-09T12:27:30.209Z,40.66
2024-05-09T12:29:56.484Z,38.91
2024-05-09T12:32:22.881Z,40.09
2024-05-09T12:34:49.185Z,39.92
2024-05-09T12:37:15.585Z,38.90
2024-05-09T12:39:41.938Z,39.87
2024-05-09T12:42:08.876Z,38.20
2024-05-09T12:44:35.157Z,39.72
2024-05-09T12:47:01.496Z,40.22
2024-05-09T12:49:27.848Z,38.51
2024-05-09T12:51:54.248Z,40.44
2024-05-09T12:54:20.548Z,41.79
2024-05-09T12:56:46.806Z,39.06
2024-05-09T12:59:13.070Z,41.41
2024-05-09T13:01:39.431Z,39.96
2024-05-09T13:04:05.990Z,39.52
2024-05-09T13:06:32.511Z,39.68
2024-05-09T13:08:58.825Z,38.12
2024-05-09T13:11:25.165Z,39.38
2024-05-09T13:13:51.469Z,38.80
2024-05-09T13:16:17.927Z,40.29
2024-05-09T13:18:44.431Z,39.27
2024-05-09T13:21:10.807Z,38.07
2024-05-09T13:23:37.100Z,38.12
2024-05-09T13:26:03.637Z,36.58
2024-05-09T13:28:29.941Z,37.31
2024-05-09T13:30:56.337Z,37.00
2024-05-09T13:33:22.845Z,35.49
2024-05-09T13:35:50.905Z,35.25
2024-05-09T13:38:17.599Z,36.20
2024-05-09T13:40:44.185Z,37.26
2024-05-09T13:43:10.718Z,37.22
2024-05-09T13:45:37.062Z,37.75
2024-05-09T13:48:03.969Z,36.81
2024-05-09T13:50:34.758Z,38.36
2024-05-09T13:53:02.950Z,36.54
2024-05-09T13:55:29.274Z,37.02
2024-05-09T13:57:55.706Z,37.22
2024-05-09T14:00:37.588Z,37.21
2024-05-09T14:03:08.538Z,36.75
2024-05-09T14:05:35.274Z,38.18
2024-05-09T14:08:01.700Z,38.19
2024-05-09T14:10:31.169Z,37.46
2024-05-09T14:12:58.390Z,36.48
2024-05-09T14:15:24.693Z,35.52
2024-05-09T14:17:51.015Z,36.10
2024-05-09T14:20:27.982Z,36.03
2024-05-09T14:22:57.590Z,36.26
2024-05-09T14:25:23.912Z,36.26
2024-05-09T14:27:50.243Z,35.93
2024-05-09T14:30:22.949Z,34.32
2024-05-09T14:32:57.005Z,34.42
2024-05-09T14:35:23.343Z,34.46
2024-05-09T14:37:49.655Z,33.84
2024-05-09T14:40:30.492Z,36.40
2024-05-09T14:43:04.221Z,36.32
2024-05-09T14:45:30.580Z,36.68
2024-05-09T14:47:57.035Z,35.72
2024-05-09T14:50:28.309Z,36.61
2024-05-09T14:53:01.296Z,36.98
2024-05-09T14:55:27.682Z,37.01
2024-05-09T14:57:54.098Z,36.87
2024-05-09T15:00:26.411Z,35.65
2024-05-09T15:02:59.202Z,36.95
2024-05-09T15:05:25.591Z,36.71
2024-05-09T15:07:51.906Z,37.55
2024-05-09T15:10:26.562Z,36.79
2024-05-09T15:12:59.847Z,35.08
2024-05-09T15:15:26.163Z,34.31
2024-05-09T15:17:52.551Z,35.09
2024-05-09T15:20:27.429Z,37.93
2024-05-09T15:22:59.970Z,36.84
2024-05-09T15:25:27.366Z,35.91
2024-05-09T15:27:53.738Z,36.98
2024-05-09T15:30:28.178Z,38.17
2024-05-09T15:32:57.774Z,38.14
2024-05-09T15:35:24.144Z,38.18
2024-05-09T15:37:50.424Z,38.73
2024-05-09T15:40:26.164Z,39.45
2024-05-09T15:43:01.615Z,39.80
2024-05-09T15:45:27.929Z,39.86
2024-05-09T15:47:54.338Z,39.73
2024-05-09T15:50:28.686Z,40.83
2024-05-09T15:53:02.607Z,40.30
2024-05-09T15:55:28.907Z,39.00
2024-05-09T15:57:55.205Z,41.23
2024-05-09T16:00:28.754Z,40.12
2024-05-09T16:03:04.651Z,40.60
2024-05-09T16:05:31.091Z,40.51
2024-05-09T16:07:57.503Z,39.67
2024-05-09T16:10:29.782Z,38.94
2024-05-09T16:12:58.826Z,40.01
2024-05-09T16:15:25.122Z,39.34
2024-05-09T16:17:51.463Z,40.05
2024-05-09T16:20:29.030Z,39.52
2024-05-09T16:23:03.078Z,39.22
2024-05-09T16:25:29.386Z,38.70
2024-05-09T16:27:55.730Z,40.20
2024-05-09T16:30:28.302Z,39.93
2024-05-09T16:33:00.798Z,40.39
2024-05-09T16:35:27.127Z,39.99
2024-05-09T16:37:53.507Z,39.84
2024-05-09T16:40:29.303Z,41.19
2024-05-09T16:43:01.060Z,40.83
2024-05-09T16:45:27.388Z,40.81
2024-05-09T16:47:53.747Z,42.03
2024-05-09T16:50:26.426Z,40.54
2024-05-09T16:52:57.615Z,39.77
2024-05-09T16:55:24.867Z,40.33
2024-05-09T16:57:51.197Z,39.46
2024-05-09T17:00:25.615Z,39.64
2024-05-09T17:02:58.309Z,39.73
2024-05-09T17:05:24.790Z,39.75
2024-05-09T17:07:51.212Z,40.15
2024-05-09T17:10:26.468Z,39.50
2024-05-09T17:12:58.439Z,40.15
2024-05-09T17:15:24.742Z,39.15
2024-05-09T17:17:51.047Z,39.42
2024-05-09T17:20:28.829Z,38.25
2024-05-09T17:22:59.636Z,38.02
2024-05-09T17:25:26.061Z,39.50
2024-05-09T17:27:52.405Z,41.04
2024-05-09T17:30:28.326Z,41.40
2024-05-09T17:32:58.873Z,42.59
2024-05-09T17:35:25.244Z,43.41
2024-05-09T17:37:51.505Z,43.11
2024-05-09T17:40:27.073Z,42.56
2024-05-09T17:42:57.565Z,41.65
2024-05-09T17:45:23.859Z,41.52
2024-05-09T17:47:50.209Z,43.34
2024-05-09T17:50:23.872Z,43.11
2024-05-09T17:52:54.116Z,43.48
2024-05-09T17:55:20.493Z,45.08
2024-05-09T17:57:46.935Z,43.47
2024-05-09T18:00:17.309Z,43.94
2024-05-09T18:02:44.055Z,43.79
2024-05-09T18:05:10.447Z,42.71
2024-05-09T18:07:36.810Z,42.92
2024-05-09T18:10:03.231Z,43.14
2024-05-09T18:12:30.076Z,42.78
2024-05-09T18:14:56.426Z,42.46
2024-05-09T18:17:25.649Z,42.31
2024-05-09T18:19:52.156Z,41.99
2024-05-09T18:22:18.741Z,42.03
2024-05-09T18:24:45.138Z,42.45
2024-05-09T18:27:11.431Z,42.67
2024-05-09T18:29:37.711Z,43.99
2024-05-09T18:32:04.009Z,45.44
2024-05-09T18:34:30.598Z,45.20
2024-05-09T18:36:57.043Z,45.67
2024-05-09T18:39:23.344Z,46.01
2024-05-09T18:41:49.607Z,45.86
2024-05-09T18:44:15.859Z,46.32
2024-05-09T18:46:42.127Z,47.29
2024-05-09T18:49:08.518Z,46.96
2024-05-09T18:51:34.906Z,47.44
2024-05-09T18:54:01.226Z,47.61
2024-05-09T18:56:27.515Z,47.86
2024-05-09T18:58:53.780Z,48.18
2024-05-09T19:01:20.207Z,48.08
2024-05-09T19:03:46.680Z,47.60
2024-05-09T19:06:13.036Z,47.97
2024-05-09T19:08:39.304Z,46.24
2024-05-09T19:11:05.685Z,48.59
2024-05-09T19:13:32.111Z,48.54
2024-05-09T19:15:58.487Z,49.28
2024-05-09T19:18:24.975Z,50.05
2024-05-09T19:20:51.499Z,50.20
2024-05-09T19:23:17.858Z,50.81
2024-05-09T19:25:44.150Z,51.03
2024-05-09T19:28:10.627Z,51.36
2024-05-09T19:30:40.954Z,51.68
2024-05-09T19:33:09.563Z,52.35
2024-05-09T19:35:36.765Z,52.67
2024-05-09T19:38:03.117Z,52.63
2024-05-09T19:40:32.342Z,53.39
2024-05-09T19:43:00.414Z,53.49
2024-05-09T19:45:26.812Z,53.85
2024-05-09T19:47:53.280Z,55.07
2024-05-09T19:50:26.405Z,55.26
2024-05-09T19:52:58.790Z,55.19
2024-05-09T19:55:25.083Z,55.23
2024-05-09T19:57:51.380Z,54.44
2024-05-09T20:00:22.367Z,54.17
2024-05-09T20:02:55.525Z,55.15
2024-05-09T20:05:22.149Z,54.64
2024-05-09T20:07:48.534Z,54.78
2024-05-09T20:10:23.250Z,54.74
2024-05-09T20:12:52.840Z,54.82
2024-05-09T20:15:19.178Z,55.81
2024-05-09T20:17:45.572Z,55.18
2024-05-09T20:20:20.296Z,54.94
2024-05-09T20:22:54.393Z,56.14
2024-05-09T20:25:20.815Z,56.24
2024-05-09T20:27:47.199Z,55.88
2024-05-09T20:30:20.896Z,55.62
2024-05-09T20:32:51.484Z,55.50
2024-05-09T20:35:17.845Z,55.63
2024-05-09T20:37:44.140Z,55.85
2024-05-09T20:40:15.652Z,55.87
2024-05-09T20:42:47.964Z,55.88
2024-05-09T20:45:14.262Z,56.56
2024-05-09T20:47:40.618Z,56.71
2024-05-09T20:50:13.731Z,56.31
2024-05-09T20:52:46.651Z,55.80
2024-05-09T20:55:13.123Z,56.57
2024-05-09T20:57:39.618Z,55.94
2024-05-09T21:00:09.561Z,56.23
2024-05-09T21:02:41.677Z,56.44
2024-05-09T21:05:08.281Z,57.24
2024-05-09T21:07:34.721Z,57.48
2024-05-09T21:10:01.024Z,57.37
2024-05-09T21:12:27.308Z,56.58
2024-05-09T21:14:53.592Z,56.48
2024-05-09T21:17:19.966Z,57.49
2024-05-09T21:19:46.323Z,57.96
2024-05-09T21:22:12.693Z,57.93
2024-05-09T21:24:39.043Z,58.96
2024-05-09T21:27:05.338Z,58.52
2024-05-09T21:29:31.612Z,58.96
2024-05-09T21:31:57.904Z,58.57
2024-05-09T21:34:24.328Z,57.85
2024-05-09T21:36:50.684Z,57.84
2024-05-09T21:39:16.969Z,57.99
2024-05-09T21:41:43.239Z,57.56
2024-05-09T21:44:09.522Z,57.69
2024-05-09T21:46:35.880Z,57.20
2024-05-09T21:49:04.777Z,57.24
2024-05-09T21:51:31.087Z,56.97
2024-05-09T21:53:57.345Z,57.27
2024-05-09T21:56:23.596Z,57.55
2024-05-09T21:58:49.898Z,57.59
2024-05-09T22:01:16.351Z,57.32
2024-05-09T22:03:42.919Z,58.06
2024-05-09T22:06:09.273Z,58.32
2024-05-09T22:08:35.561Z,58.26
2024-05-09T22:11:02.022Z,58.26
2024-05-09T22:13:28.494Z,57.45
2024-05-09T22:15:54.877Z,57.58
2024-05-09T22:18:21.537Z,57.20
2024-05-09T22:20:47.982Z,57.25
2024-05-09T22:23:14.246Z,58.06
2024-05-09T22:25:40.537Z,58.13
2024-05-09T22:28:06.974Z,58.08
2024-05-09T22:30:37.571Z,58.59
2024-05-09T22:33:06.311Z,59.10
2024-05-09T22:35:32.846Z,59.30
2024-05-09T22:37:59.158Z,59.75
2024-05-09T22:40:37.858Z,60.24
2024-05-09T22:43:11.802Z,59.76
2024-05-09T22:45:38.194Z,59.23
2024-05-09T22:48:04.605Z,59.88
2024-05-09T22:50:33.331Z,59.51
2024-05-09T22:53:00.067Z,59.83
2024-05-09T22:55:26.354Z,59.49
2024-05-09T22:57:52.685Z,59.23
2024-05-09T23:00:21.877Z,59.27
2024-05-09T23:02:52.564Z,60.04
2024-05-09T23:05:18.956Z,60.18
2024-05-09T23:07:45.317Z,60.63
2024-05-09T23:10:17.129Z,60.68
2024-05-09T23:12:47.903Z,61.11
2024-05-09T23:15:14.184Z,61.21
2024-05-09T23:17:40.540Z,60.81
2024-05-09T23:20:08.884Z,60.76
2024-05-09T23:22:37.477Z,61.04
2024-05-09T23:25:03.792Z,61.94
2024-05-09T23:27:32.426Z,62.20
2024-05-09T23:29:58.747Z,62.24
2024-05-09T23:32:25.160Z,62.11
2024-05-09T23:34:51.521Z,61.37
2024-05-09T23:37:17.935Z,61.34
2024-05-09T23:39:44.274Z,60.74
2024-05-09T23:42:10.556Z,61.04
2024-05-09T23:44:36.800Z,60.94
2024-05-09T23:47:03.152Z,60.56
2024-05-09T23:49:29.484Z,61.30
2024-05-09T23:51:55.778Z,61.22
2024-05-09T23:54:22.100Z,62.09
2024-05-09T23:56:48.368Z,62.30
2024-05-09T23:59:14.657Z,62.79
